Aberdaron, United Kingdom
Current Conditions -  °F | °C
As of 6:50 AM on Sunday 23 Nov 2014 (Local Time) from EGOV Reporting Station
Overcast Overcast  
Wind Chill: 43°   Ceiling: 16000
Heat Index: 46°   Visibility: 6mi
Dew Point: 39°   Wind: 7mph
Humidity: 76%   Direction: 300°WNW
Pressure: 30.03"   Gusts: NA
Location:  52.78°N, 4.73°W
Report Text: EGOV 230650Z AUTO 30006KT 9999 OVC160/// 08/04 Q1017
Loading
Personal Weather Stations






























Interactive Weather Map New forecast layout! Learn more

10-Day Weather Forecast

Advertisements
Track Severe Weather on mobile